Time;durP1;ratioP1;P1;durP2;ratioP2;P2;SDS_P1;SDS_P2;PMS_P1;PMS_P2;Temp;Humidity;BMP_temperature;BMP_pressure;BME280_temperature;BME280_humidity;BME280_pressure;Samples;Min_cycle;Max_cycle;Signal;HPM_P1;HPM_P2
2022/05/23 00:01:21;;;;;;;0.10;0.10;;;12.50;99.90;;;;;;5072087;28;20039;-79
2022/05/23 00:03:48;;;;;;;0.10;0.10;;;12.50;99.90;;;;;;5072369;28;20062;-79
2022/05/23 00:06:19;;;;;;;0.10;0.10;;;12.40;99.90;;;;;;5055979;28;20037;-79
2022/05/23 00:08:49;;;;;;;0.08;0.08;;;12.40;99.90;;;;;;5088897;28;20045;-78
2022/05/23 00:11:19;;;;;;;0.10;0.10;;;12.40;99.90;;;;;;5088809;28;20036;-80
2022/05/23 00:13:46;;;;;;;0.20;0.20;;;12.30;99.90;;;;;;5085946;28;20090;-79
2022/05/23 00:16:26;;;;;;;0.60;0.25;;;12.30;99.90;;;;;;5087335;28;20099;-79
2022/05/23 00:18:52;;;;;;;0.20;0.20;;;12.30;99.90;;;;;;5061142;28;20033;-79
2022/05/23 00:21:19;;;;;;;0.15;0.10;;;12.30;99.90;;;;;;5089058;28;20056;-79
2022/05/23 00:23:46;;;;;;;0.10;0.10;;;12.20;99.90;;;;;;5037969;28;20040;-80
2022/05/23 00:26:16;;;;;;;0.20;0.20;;;12.30;99.90;;;;;;5088883;28;20118;-80
2022/05/23 00:28:43;;;;;;;0.25;0.20;;;12.20;99.90;;;;;;5088712;28;20044;-79
2022/05/23 00:31:11;;;;;;;0.40;0.20;;;12.20;99.90;;;;;;5055757;28;20078;-79
2022/05/23 00:36:28;;;;;;;0.10;0.10;;;12.30;99.90;;;;;;5103997;28;20051;-79
2022/05/23 00:38:54;;;;;;;0.20;0.20;;;12.30;99.90;;;;;;5071941;28;20041;-80
2022/05/23 00:44:20;;;;;;;0.55;0.20;;;12.20;99.90;;;;;;5105505;28;20091;-79
2022/05/23 00:46:52;;;;;;;0.10;0.10;;;12.20;99.90;;;;;;5107832;28;20032;-80
2022/05/23 00:49:21;;;;;;;0.30;0.30;;;12.20;99.90;;;;;;5092322;28;20123;-80
2022/05/23 00:51:48;;;;;;;0.20;0.20;;;12.10;99.90;;;;;;5108818;28;20690;-79
2022/05/23 00:54:15;;;;;;;0.10;0.10;;;12.10;99.90;;;;;;5075184;28;20082;-80
2022/05/23 00:56:47;;;;;;;0.20;0.20;;;12.00;99.90;;;;;;5058934;28;20044;-80
2022/05/23 00:59:17;;;;;;;0.20;0.20;;;12.10;99.90;;;;;;5092246;28;20087;-79
2022/05/23 01:01:45;;;;;;;0.08;0.08;;;12.00;99.90;;;;;;5075211;28;20090;-79
2022/05/23 01:04:12;;;;;;;0.47;0.35;;;12.00;99.90;;;;;;5092419;28;20048;-79
2022/05/23 01:06:39;;;;;;;0.13;0.10;;;12.00;99.90;;;;;;5091333;28;20051;-79
2022/05/23 01:09:05;;;;;;;0.15;0.15;;;12.00;99.90;;;;;;5075141;28;20044;-80
2022/05/23 01:11:32;;;;;;;0.10;0.10;;;11.90;99.90;;;;;;5074591;28;20131;-79
2022/05/23 01:13:59;;;;;;;0.20;0.20;;;11.90;99.90;;;;;;5058395;28;20101;-79
2022/05/23 01:16:27;;;;;;;0.10;0.10;;;11.90;99.90;;;;;;5085290;28;20040;-79
2022/05/23 01:18:53;;;;;;;0.22;0.10;;;11.80;99.90;;;;;;5091690;28;20040;-79
2022/05/23 01:21:39;;;;;;;0.40;0.20;;;11.80;99.90;;;;;;5075293;28;20169;-79
2022/05/23 01:24:08;;;;;;;0.50;0.30;;;11.80;99.90;;;;;;5108269;28;20040;-78
2022/05/23 01:26:35;;;;;;;0.20;0.20;;;11.70;99.90;;;;;;5105864;28;20309;-79
2022/05/23 01:29:07;;;;;;;0.60;0.30;;;11.70;99.90;;;;;;5098517;28;20041;-79
2022/05/23 01:31:33;;;;;;;0.20;0.20;;;11.70;99.90;;;;;;5058455;28;20041;-80
2022/05/23 01:34:00;;;;;;;0.10;0.10;;;11.60;99.90;;;;;;5091491;28;20063;-79
2022/05/23 01:36:27;;;;;;;0.30;0.20;;;11.70;99.90;;;;;;5074333;28;20129;-78
2022/05/23 01:38:53;;;;;;;0.38;0.30;;;11.70;99.90;;;;;;5091383;28;20048;-79
2022/05/23 01:41:20;;;;;;;0.20;0.20;;;11.60;99.90;;;;;;5058559;28;20189;-79
2022/05/23 01:43:47;;;;;;;0.10;0.10;;;11.60;99.90;;;;;;5090940;28;20516;-79
2022/05/23 01:46:13;;;;;;;0.20;0.10;;;11.60;99.90;;;;;;5091084;28;20051;-79
2022/05/23 01:48:40;;;;;;;0.10;0.10;;;11.60;99.90;;;;;;5090535;28;20412;-79
2022/05/23 01:51:07;;;;;;;0.10;0.10;;;11.60;99.90;;;;;;5057832;28;20115;-79
2022/05/23 01:53:33;;;;;;;0.00;0.00;;;11.60;99.90;;;;;;5057398;28;20037;-79
2022/05/23 01:56:05;;;;;;;0.17;0.17;;;11.50;99.90;;;;;;5074301;28;20044;-79
2022/05/23 02:01:25;;;;;;;0.10;0.10;;;11.60;99.90;;;;;;5061329;28;20055;-79
2022/05/23 02:03:52;;;;;;;0.03;0.03;;;11.60;99.90;;;;;;5090742;28;20115;-79
2022/05/23 02:06:19;;;;;;;0.10;0.03;;;11.60;99.90;;;;;;5090679;28;20043;-79
2022/05/23 02:08:46;;;;;;;0.38;0.32;;;11.60;99.90;;;;;;5073649;28;20505;-79
2022/05/23 02:11:14;;;;;;;0.30;0.17;;;11.50;99.90;;;;;;5078804;28;20044;-80
2022/05/23 02:13:43;;;;;;;0.22;0.20;;;11.60;99.90;;;;;;5107165;28;20043;-79
2022/05/23 02:16:10;;;;;;;0.57;0.22;;;11.60;99.90;;;;;;5090904;28;20033;-79
2022/05/23 02:18:37;;;;;;;0.10;0.10;;;11.60;99.90;;;;;;5090295;28;20036;-79
2022/05/23 02:21:04;;;;;;;0.17;0.17;;;11.60;99.90;;;;;;5090591;28;20040;-79
2022/05/23 02:23:31;;;;;;;0.30;0.22;;;11.60;99.90;;;;;;5057546;28;20485;-79
2022/05/23 02:25:57;;;;;;;0.75;0.20;;;11.60;99.90;;;;;;5090551;28;20135;-79
2022/05/23 02:28:25;;;;;;;0.10;0.10;;;11.70;99.90;;;;;;5090713;28;20841;-79
2022/05/23 02:30:52;;;;;;;0.10;0.10;;;11.70;99.90;;;;;;5086612;28;20047;-79
2022/05/23 02:33:18;;;;;;;0.00;0.00;;;11.70;99.90;;;;;;5073471;28;20049;-79
2022/05/23 02:35:46;;;;;;;0.10;0.10;;;11.70;99.90;;;;;;5090002;28;20044;-80
2022/05/23 02:38:14;;;;;;;0.17;0.10;;;11.70;99.90;;;;;;5106713;28;20040;-80
2022/05/23 02:40:40;;;;;;;0.10;0.10;;;11.70;99.90;;;;;;5073175;28;20032;-79
2022/05/23 02:43:07;;;;;;;0.10;0.10;;;11.70;99.90;;;;;;5089868;28;20571;-80
2022/05/23 02:45:34;;;;;;;0.10;0.10;;;11.70;99.90;;;;;;5056943;28;20048;-79
2022/05/23 02:48:00;;;;;;;0.00;0.00;;;11.80;99.90;;;;;;5056901;28;20508;-79
2022/05/23 02:50:28;;;;;;;0.28;0.20;;;11.80;99.90;;;;;;5090231;28;20097;-79
2022/05/23 02:52:55;;;;;;;0.05;0.05;;;11.80;99.90;;;;;;5071112;28;20813;-79
2022/05/23 02:55:22;;;;;;;0.10;0.10;;;11.80;99.90;;;;;;5073299;28;20238;-80
2022/05/23 02:57:48;;;;;;;0.20;0.20;;;11.80;99.90;;;;;;5089664;28;20044;-79
2022/05/23 03:00:16;;;;;;;0.10;0.10;;;11.70;99.90;;;;;;5073447;28;20036;-79
2022/05/23 03:05:29;;;;;;;0.20;0.13;;;11.80;99.90;;;;;;5075066;28;20055;-79
2022/05/23 03:07:56;;;;;;;0.10;0.10;;;11.80;99.90;;;;;;5056486;28;20047;-80
2022/05/23 03:10:23;;;;;;;0.13;0.10;;;11.80;99.90;;;;;;5055649;28;20052;-78
2022/05/23 03:12:51;;;;;;;0.05;0.05;;;11.90;99.90;;;;;;5072435;28;20123;-78
2022/05/23 03:15:18;;;;;;;0.10;0.10;;;11.80;99.90;;;;;;5089255;28;20044;-80
2022/05/23 03:17:44;;;;;;;0.00;0.00;;;11.80;99.90;;;;;;5072704;28;20040;-79
2022/05/23 03:20:12;;;;;;;0.10;0.10;;;11.90;99.90;;;;;;5056103;28;20097;-79
2022/05/23 03:28:10;;;;;;;0.08;0.08;;;11.90;99.90;;;;;;5074858;28;20425;-79
2022/05/23 03:30:36;;;;;;;0.10;0.10;;;11.90;99.90;;;;;;5072268;28;20047;-79
2022/05/23 03:33:03;;;;;;;0.10;0.10;;;11.90;99.90;;;;;;5088651;28;20386;-79
2022/05/23 03:35:31;;;;;;;0.20;0.20;;;11.90;99.90;;;;;;5072270;28;20063;-79
2022/05/23 03:37:58;;;;;;;0.10;0.10;;;12.00;99.90;;;;;;5088723;28;20093;-80
2022/05/23 03:40:26;;;;;;;0.10;0.10;;;12.00;99.90;;;;;;5072137;28;20041;-80
2022/05/23 03:42:54;;;;;;;0.10;0.10;;;12.00;99.90;;;;;;5088836;28;20040;-79
2022/05/23 03:45:21;;;;;;;0.32;0.20;;;12.00;99.90;;;;;;5072247;28;20044;-79
2022/05/23 03:47:52;;;;;;;0.20;0.20;;;12.00;99.90;;;;;;5088976;28;20129;-80
2022/05/23 03:50:21;;;;;;;0.20;0.10;;;12.00;99.90;;;;;;5089217;28;20094;-79
2022/05/23 03:52:48;;;;;;;0.10;0.10;;;12.10;99.90;;;;;;5088455;28;20045;-79
2022/05/23 03:55:15;;;;;;;0.10;0.10;;;12.10;99.90;;;;;;5035926;28;20387;-79
2022/05/23 03:57:41;;;;;;;0.15;0.15;;;12.10;99.90;;;;;;5052581;28;20047;-79
2022/05/23 04:00:12;;;;;;;0.20;0.20;;;12.10;99.90;;;;;;5052426;28;20489;-79
2022/05/23 04:02:40;;;;;;;0.20;0.20;;;12.10;99.90;;;;;;5052340;28;20048;-79
2022/05/23 04:05:09;;;;;;;0.20;0.20;;;12.10;99.90;;;;;;5038684;28;20045;-79
2022/05/23 04:07:38;;;;;;;0.10;0.10;;;12.10;99.90;;;;;;5055951;28;20098;-79
2022/05/23 04:10:08;;;;;;;0.20;0.20;;;12.10;99.90;;;;;;5074898;28;20049;-80
2022/05/23 04:12:36;;;;;;;0.10;0.10;;;12.10;99.90;;;;;;5053641;28;20148;-79
2022/05/23 04:15:07;;;;;;;0.10;0.10;;;12.20;99.90;;;;;;5069625;28;20036;-79
2022/05/23 04:17:34;;;;;;;0.10;0.10;;;12.20;99.90;;;;;;5073928;28;20485;-80
2022/05/23 04:20:01;;;;;;;0.10;0.10;;;12.20;99.90;;;;;;5087427;28;20400;-80
2022/05/23 04:22:27;;;;;;;0.10;0.10;;;12.20;99.90;;;;;;5093483;28;20131;-79
2022/05/23 04:24:54;;;;;;;0.20;0.20;;;12.30;99.90;;;;;;5075986;28;20573;-79
2022/05/23 04:27:21;;;;;;;0.28;0.20;;;12.30;99.90;;;;;;5075977;28;20058;-80
2022/05/23 04:29:47;;;;;;;0.63;0.20;;;12.30;99.90;;;;;;5076040;28;20405;-80
2022/05/23 04:35:14;;;;;;;0.10;0.10;;;12.40;99.90;;;;;;5080647;28;20054;-80
2022/05/23 04:37:48;;;;;;;0.15;0.15;;;12.50;99.90;;;;;;5109482;28;20080;-79
2022/05/23 04:40:17;;;;;;;0.10;0.10;;;12.50;99.90;;;;;;5075928;28;20664;-79
2022/05/23 04:42:44;;;;;;;0.28;0.20;;;12.60;99.90;;;;;;5109506;28;20040;-79
2022/05/23 04:45:12;;;;;;;0.10;0.10;;;12.70;99.90;;;;;;5092281;28;20520;-79
2022/05/23 04:50:25;;;;;;;0.20;0.17;;;12.80;99.90;;;;;;5077999;28;20087;-79
2022/05/23 04:52:53;;;;;;;0.30;0.30;;;12.90;99.90;;;;;;5075220;28;20032;-80
2022/05/23 04:55:20;;;;;;;0.20;0.10;;;12.90;99.90;;;;;;5092144;28;20409;-79
2022/05/23 04:57:47;;;;;;;0.10;0.10;;;13.00;99.90;;;;;;5090531;28;20032;-79
2022/05/23 05:00:20;;;;;;;0.20;0.20;;;13.10;99.90;;;;;;5075199;28;20542;-79
2022/05/23 05:02:48;;;;;;;0.35;0.30;;;13.10;99.90;;;;;;5092208;28;20071;-79
2022/05/23 05:05:16;;;;;;;0.22;0.20;;;13.20;99.90;;;;;;5108370;28;20048;-80
2022/05/23 05:07:43;;;;;;;0.65;0.22;;;13.20;99.90;;;;;;5108262;28;20489;-79
2022/05/23 05:10:10;;;;;;;0.20;0.20;;;13.20;99.90;;;;;;5074206;28;20040;-80
2022/05/23 05:12:37;;;;;;;0.20;0.20;;;13.30;99.90;;;;;;5091436;28;20586;-78
2022/05/23 05:15:04;;;;;;;0.28;0.20;;;13.30;99.90;;;;;;5091409;28;20515;-79
2022/05/23 05:17:31;;;;;;;0.20;0.20;;;13.30;99.90;;;;;;5058366;28;20041;-79
2022/05/23 05:19:58;;;;;;;0.13;0.13;;;13.30;99.90;;;;;;5091750;28;20511;-79
2022/05/23 05:22:24;;;;;;;0.10;0.05;;;13.30;99.90;;;;;;5064720;28;20068;-80
2022/05/23 05:24:51;;;;;;;0.20;0.20;;;13.40;99.90;;;;;;5071288;28;20041;-79
2022/05/23 05:27:18;;;;;;;0.20;0.20;;;13.50;99.90;;;;;;5058240;28;20048;-80
2022/05/23 05:29:44;;;;;;;0.32;0.10;;;13.60;99.90;;;;;;5091154;28;20402;-79
2022/05/23 05:32:18;;;;;;;0.25;0.17;;;13.70;99.90;;;;;;5086630;28;20117;-79
2022/05/23 05:34:53;;;;;;;0.10;0.10;;;13.80;99.90;;;;;;5076581;28;20043;-80
2022/05/23 05:37:26;;;;;;;0.20;0.20;;;13.90;99.90;;;;;;5073139;28;20111;-80
2022/05/23 05:39:54;;;;;;;0.13;0.13;;;14.00;99.90;;;;;;5090571;28;20047;-79
2022/05/23 05:42:27;;;;;;;0.40;0.20;;;14.00;99.90;;;;;;5067676;28;20123;-79
2022/05/23 05:45:05;;;;;;;0.10;0.10;;;14.00;99.90;;;;;;5071256;28;20040;-79
2022/05/23 05:47:37;;;;;;;0.17;0.17;;;14.00;99.90;;;;;;5076694;28;20135;-79
2022/05/23 05:50:11;;;;;;;0.65;0.30;;;14.00;99.90;;;;;;5061594;28;20039;-80
2022/05/23 05:52:38;;;;;;;0.57;0.32;;;14.00;99.90;;;;;;5073867;28;20620;-79
2022/05/23 05:55:07;;;;;;;0.10;0.10;;;14.10;99.90;;;;;;5082499;28;20044;-79
2022/05/23 05:57:34;;;;;;;0.50;0.30;;;14.10;99.90;;;;;;5058057;28;20044;-80
2022/05/23 06:00:01;;;;;;;0.13;0.10;;;14.10;99.90;;;;;;5075440;28;20052;-79
2022/05/23 06:02:28;;;;;;;0.47;0.35;;;14.10;99.90;;;;;;5054248;28;20045;-79
2022/05/23 06:04:54;;;;;;;0.55;0.30;;;14.20;99.90;;;;;;5071355;28;20044;-79
2022/05/23 06:12:59;;;;;;;0.60;0.38;;;14.30;99.90;;;;;;5107359;28;20063;-79
2022/05/23 06:15:26;;;;;;;0.10;0.10;;;14.40;99.90;;;;;;5090413;28;20032;-80
2022/05/23 06:17:53;;;;;;;0.45;0.30;;;14.40;99.90;;;;;;5090493;28;20123;-79
2022/05/23 06:20:20;;;;;;;0.22;0.20;;;14.40;99.90;;;;;;5075151;28;20028;-80
2022/05/23 06:22:47;;;;;;;0.20;0.20;;;14.40;99.90;;;;;;5090031;28;20041;-80
2022/05/23 06:25:14;;;;;;;0.30;0.30;;;14.50;99.90;;;;;;5069598;28;20033;-80
2022/05/23 06:27:40;;;;;;;0.10;0.10;;;14.40;99.90;;;;;;5059842;28;20505;-80
2022/05/23 06:30:09;;;;;;;0.35;0.35;;;14.40;99.90;;;;;;5076787;28;20048;-80
2022/05/23 06:32:36;;;;;;;0.20;0.20;;;14.50;99.90;;;;;;5087922;28;20052;-79
2022/05/23 06:35:07;;;;;;;0.32;0.22;;;14.60;99.90;;;;;;5080397;28;20121;-80
2022/05/23 06:37:39;;;;;;;0.22;0.17;;;14.70;99.90;;;;;;5070454;28;20390;-79
2022/05/23 06:40:08;;;;;;;0.30;0.20;;;14.80;99.90;;;;;;5089854;28;20048;-80
2022/05/23 06:42:35;;;;;;;0.20;0.20;;;14.90;99.90;;;;;;5064059;28;20047;-80
2022/05/23 06:45:04;;;;;;;0.28;0.28;;;15.10;99.90;;;;;;5062256;28;20040;-79
2022/05/23 06:47:31;;;;;;;0.52;0.20;;;15.20;99.90;;;;;;5119083;28;20572;-80
2022/05/23 06:49:57;;;;;;;0.95;0.40;;;15.40;99.90;;;;;;5084345;28;20112;-80
2022/05/23 06:52:24;;;;;;;0.28;0.28;;;15.50;99.90;;;;;;5060998;28;20574;-82
2022/05/23 06:54:51;;;;;;;0.57;0.40;;;15.80;99.90;;;;;;5073336;28;20040;-81
2022/05/23 06:57:18;;;;;;;0.52;0.35;;;15.90;99.90;;;;;;5076495;28;20041;-80
2022/05/23 06:59:44;;;;;;;0.43;0.20;;;16.10;99.90;;;;;;5065960;28;20048;-82
2022/05/23 07:02:11;;;;;;;0.30;0.30;;;16.20;99.90;;;;;;5056985;28;20125;-80
2022/05/23 07:12:55;;;;;;;0.25;0.25;;;16.60;99.90;;;;;;5068252;28;20043;-81
2022/05/23 07:15:22;;;;;;;0.22;0.22;;;16.70;99.90;;;;;;5073227;28;20044;-82
2022/05/23 07:17:48;;;;;;;0.20;0.20;;;16.80;99.90;;;;;;5089942;28;20477;-81
2022/05/23 07:20:15;;;;;;;0.60;0.30;;;16.80;99.90;;;;;;5056950;28;20033;-82
2022/05/23 07:22:42;;;;;;;0.20;0.20;;;17.00;99.90;;;;;;5056726;28;20041;-82
2022/05/23 07:25:09;;;;;;;0.17;0.17;;;17.10;99.90;;;;;;5089128;28;20041;-82
2022/05/23 07:27:36;;;;;;;0.35;0.30;;;17.20;99.90;;;;;;5072909;28;20067;-81
2022/05/23 07:30:03;;;;;;;0.55;0.32;;;17.30;99.90;;;;;;5089520;28;20036;-81
2022/05/23 07:32:30;;;;;;;0.65;0.40;;;17.30;99.90;;;;;;5085528;28;20053;-81
2022/05/23 07:34:57;;;;;;;0.43;0.30;;;17.40;99.90;;;;;;5069436;28;20037;-82
2022/05/23 07:37:23;;;;;;;0.30;0.30;;;17.40;99.90;;;;;;5052585;28;20037;-82
2022/05/23 07:39:50;;;;;;;0.20;0.20;;;17.50;99.90;;;;;;5086445;28;20076;-82
2022/05/23 07:42:18;;;;;;;0.17;0.17;;;17.60;99.90;;;;;;5085672;28;20460;-81
2022/05/23 07:44:45;;;;;;;0.20;0.17;;;17.70;99.90;;;;;;5052995;28;20108;-82
2022/05/23 07:47:12;;;;;;;0.55;0.38;;;17.80;99.90;;;;;;5085716;28;20053;-81
2022/05/23 07:49:39;;;;;;;1.25;0.63;;;17.90;99.90;;;;;;5069418;28;20128;-81
2022/05/23 07:52:06;;;;;;;0.30;0.30;;;18.00;99.90;;;;;;5053373;28;20045;-81
2022/05/23 08:02:49;;;;;;;1.38;0.47;;;18.10;99.90;;;;;;5071813;28;20084;-82
2022/05/23 08:05:16;;;;;;;0.40;0.30;;;18.20;99.90;;;;;;5053061;28;20083;-82
2022/05/23 08:07:42;;;;;;;0.65;0.52;;;18.30;99.90;;;;;;5049405;28;20188;-80
2022/05/23 08:10:10;;;;;;;0.30;0.30;;;18.40;99.90;;;;;;5049414;28;20052;-81
2022/05/23 08:12:37;;;;;;;0.50;0.32;;;18.50;99.90;;;;;;5048999;28;20494;-82
2022/05/23 08:15:04;;;;;;;0.32;0.30;;;18.60;99.90;;;;;;5082073;28;20083;-82
2022/05/23 08:17:31;;;;;;;0.30;0.30;;;18.70;99.90;;;;;;5065569;28;20045;-81
2022/05/23 08:19:58;;;;;;;0.98;0.43;;;18.90;99.90;;;;;;5049211;28;20505;-82
2022/05/23 08:22:26;;;;;;;0.60;0.45;;;19.20;99.90;;;;;;5049294;28;20192;-81
2022/05/23 08:24:53;;;;;;;0.60;0.32;;;19.40;99.90;;;;;;5049057;28;20496;-81
2022/05/23 08:27:20;;;;;;;0.28;0.28;;;19.60;99.90;;;;;;5067928;28;20128;-81
2022/05/23 08:29:47;;;;;;;0.68;0.47;;;19.80;99.90;;;;;;5085666;28;20041;-81
2022/05/23 08:32:16;;;;;;;0.52;0.30;;;20.10;99.90;;;;;;5052236;28;20057;-81
2022/05/23 08:34:43;;;;;;;0.32;0.32;;;20.30;99.90;;;;;;5052847;28;20410;-82
2022/05/23 08:37:09;;;;;;;0.10;0.10;;;20.40;99.90;;;;;;5052254;28;20033;-81
2022/05/23 08:39:36;;;;;;;0.40;0.38;;;20.50;99.90;;;;;;5052695;28;20041;-81
2022/05/23 08:42:21;;;;;;;1.00;0.57;;;20.60;99.90;;;;;;5036329;28;20417;-82
2022/05/23 08:45:00;;;;;;;0.20;0.20;;;20.60;99.90;;;;;;5069077;28;20037;-83
2022/05/23 08:47:38;;;;;;;0.77;0.47;;;20.60;99.90;;;;;;5068549;28;20048;-82
2022/05/23 08:50:17;;;;;;;0.65;0.47;;;20.60;99.90;;;;;;5068918;28;20083;-81
2022/05/23 08:52:52;;;;;;;0.50;0.50;;;20.50;99.90;;;;;;5068512;28;20041;-82
2022/05/23 08:55:36;;;;;;;0.60;0.40;;;20.60;99.90;;;;;;5068860;28;20076;-82
2022/05/23 08:58:24;;;;;;;0.40;0.30;;;20.60;99.90;;;;;;5085017;28;20495;-81
2022/05/23 09:00:57;;;;;;;2.20;0.98;;;20.60;99.90;;;;;;5068473;28;20029;-82
2022/05/23 09:03:28;;;;;;;0.38;0.38;;;20.70;99.90;;;;;;5068442;28;20049;-82
2022/05/23 09:06:06;;;;;;;0.90;0.60;;;20.90;99.90;;;;;;5085673;28;20045;-81
2022/05/23 09:08:43;;;;;;;0.50;0.50;;;21.00;99.90;;;;;;5070921;28;20576;-83
2022/05/23 09:11:30;;;;;;;0.60;0.40;;;21.10;99.90;;;;;;5072073;28;20052;-82
2022/05/23 09:13:58;;;;;;;0.68;0.45;;;21.30;99.90;;;;;;5072110;28;20056;-81
2022/05/23 09:16:28;;;;;;;0.35;0.35;;;21.50;99.90;;;;;;5071985;28;20041;-81
2022/05/23 09:19:10;;;;;;;0.65;0.50;;;21.60;99.90;;;;;;5088757;28;20044;-82
2022/05/23 09:24:22;;;;;;;0.68;0.57;;;22.00;99.90;;;;;;5073951;28;20044;-82
2022/05/23 09:26:48;;;;;;;0.47;0.30;;;22.00;99.90;;;;;;5071889;28;20045;-83
2022/05/23 09:29:15;;;;;;;0.85;0.50;;;22.10;99.90;;;;;;5038810;28;20033;-81
2022/05/23 09:31:52;;;;;;;0.40;0.40;;;22.30;99.90;;;;;;5051912;28;20084;-83
2022/05/23 09:34:44;;;;;;;0.43;0.43;;;22.40;99.90;;;;;;5055292;28;20110;-81
2022/05/23 09:37:27;;;;;;;0.40;0.40;;;22.50;99.90;;;;;;5072052;28;20044;-81
2022/05/23 09:39:57;;;;;;;0.25;0.25;;;22.50;99.90;;;;;;5056533;28;20516;-83
2022/05/23 09:48:17;;;;;;;0.98;0.70;;;22.90;99.90;;;;;;5108106;28;20044;-82
2022/05/23 09:50:59;;;;;;;0.40;0.40;;;22.90;99.90;;;;;;5074116;28;20036;-83
2022/05/23 09:53:52;;;;;;;0.38;0.30;;;23.00;99.90;;;;;;5091103;28;20029;-81
2022/05/23 09:56:22;;;;;;;0.47;0.40;;;23.10;99.90;;;;;;5091415;28;20127;-82
2022/05/23 09:58:50;;;;;;;0.70;0.55;;;23.30;99.90;;;;;;5091444;28;20028;-82
2022/05/23 10:01:32;;;;;;;0.55;0.40;;;23.30;99.90;;;;;;5091030;28;20127;-82
2022/05/23 10:03:59;;;;;;;0.32;0.30;;;23.40;99.90;;;;;;5091057;28;20052;-83
2022/05/23 10:06:42;;;;;;;1.23;0.80;;;23.50;99.90;;;;;;5058972;28;20129;-81
2022/05/23 10:09:24;;;;;;;0.40;0.40;;;23.50;99.90;;;;;;5090188;28;20044;-87
2022/05/23 10:11:55;;;;;;;0.38;0.38;;;23.50;99.90;;;;;;5073269;28;20404;-88
2022/05/23 10:14:24;;;;;;;0.20;0.20;;;23.60;99.90;;;;;;5065750;28;20051;-80
2022/05/23 10:16:55;;;;;;;0.30;0.30;;;23.70;99.90;;;;;;5065480;28;20477;-81
2022/05/23 10:19:32;;;;;;;0.45;0.43;;;23.70;99.90;;;;;;5069482;28;20464;-82
2022/05/23 10:22:13;;;;;;;0.50;0.40;;;23.70;99.90;;;;;;5057387;28;20044;-84
2022/05/23 10:24:53;;;;;;;1.75;0.43;;;23.80;99.90;;;;;;5070281;28;20041;-81
2022/05/23 10:28:09;;;;;;;0.85;0.55;;;24.00;99.90;;;;;;5053650;28;20048;-86
2022/05/23 10:30:39;;;;;;;0.40;0.40;;;24.20;99.90;;;;;;5084307;28;20454;-84
2022/05/23 10:33:10;;;;;;;0.50;0.50;;;24.40;99.90;;;;;;5060423;28;20061;-84
2022/05/23 10:35:56;;;;;;;0.63;0.43;;;24.50;99.90;;;;;;5053234;28;20180;-84
2022/05/23 10:44:34;;;;;;;1.08;0.60;;;24.70;99.90;;;;;;5073775;28;20137;-80
2022/05/23 10:47:23;;;;;;;0.60;0.32;;;24.90;99.90;;;;;;5074379;28;20041;-84
2022/05/23 10:49:57;;;;;;;0.77;0.40;;;24.90;99.30;;;;;;5074913;28;20041;-81
2022/05/23 10:52:38;;;;;;;0.30;0.30;;;24.80;99.80;;;;;;5073602;28;20493;-79
2022/05/23 10:55:37;;;;;;;0.40;0.38;;;24.80;99.90;;;;;;5053235;28;20111;-81
2022/05/23 10:58:19;;;;;;;0.22;0.22;;;25.00;99.90;;;;;;5067336;28;20450;-81
2022/05/23 11:01:18;;;;;;;0.40;0.40;;;25.00;99.90;;;;;;5089446;28;20123;-81
2022/05/23 11:04:22;;;;;;;0.35;0.30;;;24.90;98.30;;;;;;5089733;28;20087;-83
2022/05/23 11:06:58;;;;;;;0.73;0.45;;;24.80;98.80;;;;;;5087673;28;20044;-81
2022/05/23 11:09:43;;;;;;;0.65;0.45;;;24.50;97.80;;;;;;5078762;28;20062;-80
2022/05/23 11:12:22;;;;;;;0.40;0.38;;;24.50;98.70;;;;;;5084956;28;20041;-80
2022/05/23 11:15:30;;;;;;;0.80;0.50;;;24.50;97.90;;;;;;5071926;28;20049;-81
2022/05/23 11:18:14;;;;;;;0.32;0.20;;;24.60;98.00;;;;;;5052601;28;20405;-80
2022/05/23 11:20:41;;;;;;;1.15;0.55;;;24.90;97.70;;;;;;5082280;28;20052;-80
2022/05/23 11:23:25;;;;;;;1.20;0.50;;;24.90;97.80;;;;;;5065290;28;20043;-80
2022/05/23 11:26:23;;;;;;;0.43;0.30;;;25.00;99.10;;;;;;5082112;28;20055;-80
2022/05/23 11:34:51;;;;;;;0.35;0.30;;;25.40;96.40;;;;;;5099243;28;20076;-82
2022/05/23 11:39:52;;;;;;;0.20;0.20;;;25.30;96.70;;;;;;5091681;28;20040;-81
2022/05/23 11:42:21;;;;;;;0.30;0.30;;;25.30;97.70;;;;;;5061217;28;20074;-81
2022/05/23 11:44:49;;;;;;;0.20;0.20;;;25.30;97.40;;;;;;5084313;28;20533;-81
2022/05/23 11:47:25;;;;;;;0.28;0.28;;;25.50;98.00;;;;;;5069007;28;20040;-81
2022/05/23 11:50:17;;;;;;;0.30;0.30;;;25.50;96.70;;;;;;5070026;28;20040;-81
2022/05/23 11:53:02;;;;;;;0.30;0.30;;;25.50;94.80;;;;;;5088804;28;20051;-82
2022/05/23 11:55:51;;;;;;;0.38;0.28;;;25.50;96.10;;;;;;5083294;28;20447;-82
2022/05/23 11:58:24;;;;;;;0.28;0.28;;;25.60;95.00;;;;;;5084883;28;20490;-81
2022/05/23 12:01:04;;;;;;;0.43;0.43;;;25.70;95.80;;;;;;5071710;28;20117;-82
2022/05/23 12:03:50;;;;;;;0.20;0.20;;;25.50;94.10;;;;;;5072260;28;20063;-82
2022/05/23 12:06:38;;;;;;;0.10;0.10;;;25.40;95.30;;;;;;5076772;28;20041;-82
2022/05/23 12:09:26;;;;;;;0.30;0.30;;;25.30;95.00;;;;;;5065577;28;20095;-82
2022/05/23 12:12:26;;;;;;;0.20;0.20;;;25.40;93.90;;;;;;5059644;28;20057;-82
2022/05/23 12:14:55;;;;;;;0.25;0.25;;;25.40;94.50;;;;;;5079566;28;20041;-80
2022/05/23 12:17:27;;;;;;;0.38;0.38;;;25.60;95.80;;;;;;5068598;28;20071;-81
2022/05/23 12:19:57;;;;;;;0.85;0.40;;;25.70;95.40;;;;;;5061223;28;20045;-82
2022/05/23 12:22:35;;;;;;;0.32;0.30;;;25.90;96.00;;;;;;5042504;28;20057;-82
2022/05/23 12:25:07;;;;;;;0.30;0.30;;;25.80;94.20;;;;;;5087190;28;20520;-83
2022/05/23 12:27:59;;;;;;;0.50;0.40;;;25.80;95.20;;;;;;5088716;28;20063;-82
2022/05/23 12:30:26;;;;;;;0.40;0.40;;;25.70;94.90;;;;;;5072838;28;20097;-81
2022/05/23 12:32:58;;;;;;;0.20;0.20;;;25.50;95.30;;;;;;5072189;28;20497;-82
2022/05/23 12:35:32;;;;;;;0.40;0.30;;;25.30;97.00;;;;;;5089711;28;20039;-82
2022/05/23 12:38:24;;;;;;;0.63;0.40;;;25.40;95.70;;;;;;5080059;28;20083;-84
2022/05/23 12:41:03;;;;;;;0.20;0.20;;;25.30;94.80;;;;;;5060778;28;20509;-84
2022/05/23 12:43:49;;;;;;;0.40;0.40;;;25.30;96.50;;;;;;5073068;28;20086;-82
2022/05/23 12:46:32;;;;;;;0.20;0.20;;;25.60;95.70;;;;;;5080984;28;20049;-84
2022/05/23 12:49:10;;;;;;;0.20;0.20;;;25.70;94.90;;;;;;5094909;28;20049;-82
2022/05/23 12:52:31;;;;;;;0.50;0.50;;;25.90;95.00;;;;;;5073140;28;20037;-82
2022/05/23 12:55:24;;;;;;;1.10;0.47;;;25.90;94.90;;;;;;5063480;28;20053;-80
2022/05/23 12:58:20;;;;;;;0.30;0.30;;;25.60;94.30;;;;;;5035791;28;20056;-79
2022/05/23 13:00:58;;;;;;;0.30;0.30;;;25.60;96.00;;;;;;5071905;28;20041;-82
2022/05/23 13:03:26;;;;;;;1.40;0.47;;;25.60;95.50;;;;;;5069219;28;20115;-82
2022/05/23 13:06:04;;;;;;;0.40;0.35;;;25.60;95.20;;;;;;5091606;28;20044;-80
2022/05/23 13:08:52;;;;;;;0.55;0.40;;;25.60;96.20;;;;;;5075226;28;20408;-82
2022/05/23 13:11:46;;;;;;;3.03;0.90;;;25.40;94.30;;;;;;5074880;28;20044;-80
2022/05/23 13:14:14;;;;;;;0.43;0.30;;;25.30;95.80;;;;;;5086999;28;20128;-81
2022/05/23 13:16:52;;;;;;;0.20;0.20;;;25.10;95.80;;;;;;5091197;28;20036;-81
2022/05/23 13:22:13;;;;;;;0.20;0.20;;;24.80;96.30;;;;;;5070902;28;20053;-80
2022/05/23 13:24:50;;;;;;;0.43;0.40;;;24.70;96.40;;;;;;5090134;28;20489;-81
2022/05/23 13:27:19;;;;;;;0.30;0.30;;;24.90;96.10;;;;;;5091766;28;20045;-81
2022/05/23 13:29:55;;;;;;;0.28;0.28;;;24.90;95.40;;;;;;5091252;28;20129;-80
2022/05/23 13:32:22;;;;;;;0.20;0.20;;;25.00;95.90;;;;;;5074669;28;20106;-80
2022/05/23 13:34:50;;;;;;;0.63;0.47;;;25.10;96.20;;;;;;5074378;28;20075;-81
2022/05/23 13:37:26;;;;;;;0.40;0.30;;;25.10;95.90;;;;;;5088715;28;20036;-81
2022/05/23 13:39:53;;;;;;;0.30;0.30;;;25.00;96.30;;;;;;5090762;28;20060;-80
2022/05/23 13:42:23;;;;;;;0.30;0.30;;;24.90;96.60;;;;;;5091076;28;20047;-80
2022/05/23 13:44:50;;;;;;;0.52;0.40;;;24.80;96.80;;;;;;5090940;28;20626;-79
2022/05/23 13:47:25;;;;;;;0.20;0.20;;;24.80;97.80;;;;;;5090845;28;20041;-81
2022/05/23 13:50:01;;;;;;;0.57;0.30;;;24.70;97.20;;;;;;5074206;28;20473;-80
2022/05/23 13:52:50;;;;;;;0.52;0.40;;;24.60;96.00;;;;;;5081135;28;20684;-81
2022/05/23 13:55:40;;;;;;;0.20;0.20;;;24.50;97.40;;;;;;5074061;28;20540;-80
2022/05/23 13:58:25;;;;;;;0.38;0.30;;;24.40;98.10;;;;;;5075697;28;20489;-79
2022/05/23 14:01:05;;;;;;;0.30;0.30;;;24.30;97.90;;;;;;5074142;28;20146;-80
2022/05/23 14:03:36;;;;;;;0.32;0.22;;;24.20;98.30;;;;;;5090351;28;20036;-81
2022/05/23 14:06:07;;;;;;;0.70;0.40;;;24.20;99.20;;;;;;5090657;28;20405;-80
2022/05/23 14:08:38;;;;;;;0.40;0.40;;;24.10;98.80;;;;;;5073979;28;20037;-81
2022/05/23 14:11:18;;;;;;;0.85;0.40;;;24.10;98.20;;;;;;5074001;28;20102;-80
2022/05/23 14:13:46;;;;;;;0.38;0.30;;;24.00;98.40;;;;;;5089871;28;20119;-80
2022/05/23 14:16:16;;;;;;;0.20;0.20;;;24.00;98.60;;;;;;5073316;28;20542;-81
2022/05/23 14:19:12;;;;;;;0.70;0.45;;;23.90;99.40;;;;;;5073479;28;20127;-79
2022/05/23 14:21:39;;;;;;;0.40;0.40;;;23.70;99.90;;;;;;5074321;28;20040;-80
2022/05/23 14:24:45;;;;;;;0.30;0.30;;;23.70;99.90;;;;;;5071963;28;20072;-81